Time;durP1;ratioP1;P1;durP2;ratioP2;P2;SDS_P1;SDS_P2;PMS_P1;PMS_P2;Temp;Humidity;BMP_temperature;BMP_pressure;BME280_temperature;BME280_humidity;BME280_pressure;Samples;Min_cycle;Max_cycle;Signal;HPM_P1;HPM_P2
2022/02/28 00:00:31;;;;;;;3.92;1.45;;;2.10;68.80;;;;;;4963753;28;20037;-74
2022/02/28 00:02:57;;;;;;;3.88;1.70;;;2.20;68.30;;;;;;4961795;28;20043;-74
2022/02/28 00:05:24;;;;;;;5.45;1.80;;;2.10;68.50;;;;;;4967055;28;20404;-74
2022/02/28 00:07:50;;;;;;;3.33;1.42;;;2.10;69.10;;;;;;4990175;28;20042;-74
2022/02/28 00:10:16;;;;;;;2.90;1.33;;;2.10;68.30;;;;;;4971923;28;20461;-74
2022/02/28 00:12:43;;;;;;;3.38;1.77;;;2.10;68.20;;;;;;4971986;28;20053;-73
2022/02/28 00:15:10;;;;;;;4.43;1.73;;;2.10;68.40;;;;;;4972692;28;20075;-73
2022/02/28 00:17:36;;;;;;;3.00;1.27;;;2.10;68.20;;;;;;4972307;28;20500;-74
2022/02/28 00:20:08;;;;;;;3.80;1.60;;;2.30;67.70;;;;;;4972647;28;20130;-74
2022/02/28 00:22:34;;;;;;;5.65;1.38;;;2.10;68.30;;;;;;4972761;28;20093;-74
2022/02/28 00:25:01;;;;;;;3.42;1.63;;;2.20;67.70;;;;;;4971972;28;20387;-74
2022/02/28 00:27:26;;;;;;;3.78;1.55;;;2.30;67.30;;;;;;4972195;28;20038;-74
2022/02/28 00:29:52;;;;;;;4.00;1.70;;;2.30;67.30;;;;;;4972054;28;20432;-74
2022/02/28 00:32:19;;;;;;;4.38;1.55;;;2.40;66.90;;;;;;4971534;28;20030;-74
2022/02/28 00:34:45;;;;;;;3.80;1.60;;;2.30;67.70;;;;;;4978889;28;20097;-74
2022/02/28 00:37:11;;;;;;;4.55;1.30;;;2.40;67.00;;;;;;4971827;28;20035;-74
2022/02/28 00:39:36;;;;;;;3.15;1.20;;;2.30;67.50;;;;;;4972583;28;20485;-74
2022/02/28 00:42:02;;;;;;;5.03;1.95;;;2.20;67.50;;;;;;4970331;28;20045;-74
2022/02/28 00:44:28;;;;;;;4.40;1.58;;;2.10;67.70;;;;;;4971693;28;20039;-74
2022/02/28 00:46:54;;;;;;;5.25;1.48;;;2.10;67.60;;;;;;4971937;28;20035;-74
2022/02/28 00:49:19;;;;;;;4.28;1.55;;;2.40;66.80;;;;;;4971919;28;20043;-74
2022/02/28 00:51:45;;;;;;;4.88;2.22;;;2.30;67.00;;;;;;4968932;28;20031;-74
2022/02/28 00:54:11;;;;;;;4.53;1.70;;;2.30;67.30;;;;;;4973587;28;20035;-74
2022/02/28 00:56:36;;;;;;;3.35;1.40;;;2.30;67.10;;;;;;4970854;28;20580;-74
2022/02/28 00:59:02;;;;;;;4.10;1.52;;;2.20;67.20;;;;;;4972032;28;20035;-74
2022/02/28 01:01:28;;;;;;;4.35;1.60;;;2.20;67.50;;;;;;4971149;28;20034;-74
2022/02/28 01:03:54;;;;;;;5.75;1.80;;;2.10;67.80;;;;;;4969618;28;20090;-73
2022/02/28 01:06:19;;;;;;;7.28;1.85;;;1.90;68.40;;;;;;4972092;28;20039;-73
2022/02/28 01:08:45;;;;;;;2.63;1.20;;;1.80;68.60;;;;;;4969246;28;20042;-74
2022/02/28 01:11:11;;;;;;;4.70;1.30;;;1.60;68.80;;;;;;4970683;28;20583;-74
2022/02/28 01:13:36;;;;;;;4.22;1.63;;;1.60;69.00;;;;;;4976413;28;20041;-74
2022/02/28 01:16:02;;;;;;;5.85;2.55;;;1.80;68.40;;;;;;4970644;28;20758;-74
2022/02/28 01:18:28;;;;;;;4.72;1.58;;;1.70;68.80;;;;;;4968015;28;20035;-74
2022/02/28 01:20:54;;;;;;;3.22;1.48;;;1.60;69.20;;;;;;4972085;28;20105;-74
2022/02/28 01:23:19;;;;;;;4.00;1.70;;;1.40;69.80;;;;;;4971017;28;20093;-74
2022/02/28 01:25:45;;;;;;;4.03;1.50;;;1.30;70.20;;;;;;4970395;28;20041;-74
2022/02/28 01:28:11;;;;;;;4.55;1.75;;;1.20;70.60;;;;;;4970269;28;20030;-74
2022/02/28 01:30:38;;;;;;;4.85;2.10;;;1.20;70.60;;;;;;4969581;28;20117;-74
2022/02/28 01:33:04;;;;;;;6.05;2.20;;;1.20;70.60;;;;;;4973111;28;20437;-74
2022/02/28 01:35:30;;;;;;;3.90;1.63;;;1.30;70.20;;;;;;4971794;28;20038;-74
2022/02/28 01:37:56;;;;;;;4.80;2.08;;;1.50;69.50;;;;;;4970199;28;20037;-74
2022/02/28 01:40:21;;;;;;;6.50;2.25;;;1.40;70.10;;;;;;4971650;28;20031;-74
2022/02/28 01:42:47;;;;;;;4.43;1.63;;;1.20;70.40;;;;;;4973522;28;20037;-74
2022/02/28 01:45:16;;;;;;;4.05;1.90;;;1.20;70.20;;;;;;4974777;28;20117;-74
2022/02/28 01:47:42;;;;;;;2.83;1.50;;;1.50;69.50;;;;;;4967763;28;20023;-74
2022/02/28 01:50:09;;;;;;;4.93;1.60;;;1.60;68.60;;;;;;4971840;28;20089;-74
2022/02/28 01:52:35;;;;;;;5.45;2.00;;;1.60;68.90;;;;;;4973227;28;20075;-74
2022/02/28 01:55:02;;;;;;;4.78;1.88;;;1.40;69.30;;;;;;4974326;28;20035;-74
2022/02/28 01:57:28;;;;;;;7.35;2.25;;;1.50;68.80;;;;;;4974727;28;20066;-74
2022/02/28 01:59:53;;;;;;;8.32;1.88;;;1.60;68.60;;;;;;4974084;28;20116;-74
2022/02/28 02:02:19;;;;;;;4.90;1.80;;;1.50;69.10;;;;;;4966961;28;20088;-74
2022/02/28 02:04:45;;;;;;;6.68;2.67;;;1.50;69.00;;;;;;4980438;28;20055;-74
2022/02/28 02:07:10;;;;;;;4.88;2.03;;;1.50;68.80;;;;;;4950938;28;20038;-74
2022/02/28 02:09:38;;;;;;;4.07;2.25;;;1.30;69.30;;;;;;4968030;28;20110;-74
2022/02/28 02:12:05;;;;;;;5.60;2.05;;;1.40;69.10;;;;;;4975023;28;20038;-74
2022/02/28 02:14:34;;;;;;;7.93;2.20;;;1.40;69.20;;;;;;4974099;28;20110;-74
2022/02/28 02:17:00;;;;;;;4.68;2.10;;;1.50;69.10;;;;;;4973704;28;20070;-74
2022/02/28 02:19:26;;;;;;;5.00;1.90;;;1.60;68.50;;;;;;4974891;28;20112;-74
2022/02/28 02:21:51;;;;;;;7.28;1.92;;;1.60;68.50;;;;;;4973156;28;20054;-74
2022/02/28 02:24:17;;;;;;;4.85;2.10;;;1.70;68.20;;;;;;4976998;28;20055;-74
2022/02/28 02:26:43;;;;;;;7.80;2.47;;;1.70;68.80;;;;;;4974296;28;20034;-74
2022/02/28 02:29:08;;;;;;;5.63;2.03;;;1.60;68.60;;;;;;4976798;28;20034;-73
2022/02/28 02:31:34;;;;;;;5.78;2.65;;;1.50;68.40;;;;;;4973665;28;20062;-74
2022/02/28 02:34:00;;;;;;;5.03;2.05;;;1.70;68.60;;;;;;4973316;28;20042;-74
2022/02/28 02:36:25;;;;;;;3.95;1.83;;;1.60;67.90;;;;;;4973908;28;20030;-74
2022/02/28 02:38:52;;;;;;;4.65;2.20;;;1.60;67.90;;;;;;4972911;28;20041;-74
2022/02/28 02:41:18;;;;;;;4.88;1.85;;;1.70;68.00;;;;;;4973405;28;20030;-74
2022/02/28 02:43:45;;;;;;;4.78;1.75;;;1.70;67.70;;;;;;4973825;28;20489;-74
2022/02/28 02:46:10;;;;;;;4.07;1.85;;;1.70;68.00;;;;;;4975249;28;20057;-74
2022/02/28 02:48:36;;;;;;;4.55;1.83;;;1.60;68.10;;;;;;4973828;28;20706;-74
2022/02/28 02:51:02;;;;;;;5.35;2.15;;;1.50;69.20;;;;;;4972768;28;20046;-74
2022/02/28 02:53:28;;;;;;;5.97;2.28;;;1.30;69.30;;;;;;4973014;28;20022;-74
2022/02/28 02:55:54;;;;;;;4.10;2.28;;;1.30;68.80;;;;;;4973364;28;20042;-74
2022/02/28 02:58:20;;;;;;;5.22;1.88;;;1.40;69.60;;;;;;4973672;28;20504;-74
2022/02/28 03:00:48;;;;;;;5.50;2.28;;;1.30;69.40;;;;;;4973183;28;20035;-74
2022/02/28 03:03:19;;;;;;;4.03;1.90;;;1.30;69.70;;;;;;4973678;28;20147;-74
2022/02/28 03:05:46;;;;;;;4.75;2.03;;;1.40;69.90;;;;;;4972832;28;20085;-74
2022/02/28 03:08:12;;;;;;;4.00;1.83;;;1.40;68.70;;;;;;4972879;28;20389;-74
2022/02/28 03:10:38;;;;;;;4.38;2.05;;;1.50;68.40;;;;;;4971594;28;20031;-74
2022/02/28 03:13:04;;;;;;;7.22;2.85;;;1.30;69.20;;;;;;4973826;28;20027;-73
2022/02/28 03:15:30;;;;;;;5.13;2.20;;;1.30;68.60;;;;;;4971702;28;20039;-73
2022/02/28 03:17:55;;;;;;;4.00;2.05;;;1.50;68.20;;;;;;4975378;28;20034;-74
2022/02/28 03:20:22;;;;;;;5.55;2.53;;;1.30;68.90;;;;;;4971027;28;20034;-74
2022/02/28 03:22:49;;;;;;;4.53;1.90;;;1.40;68.30;;;;;;4973085;28;20430;-74
2022/02/28 03:25:14;;;;;;;6.47;2.53;;;1.30;68.50;;;;;;4972238;28;20042;-74
2022/02/28 03:27:41;;;;;;;4.72;1.80;;;1.20;70.70;;;;;;4969914;28;20552;-74
2022/02/28 03:30:07;;;;;;;6.40;2.17;;;1.10;68.80;;;;;;4971545;28;20094;-74
2022/02/28 03:32:34;;;;;;;4.70;2.10;;;1.50;67.70;;;;;;4977766;28;20453;-74
2022/02/28 03:34:59;;;;;;;3.10;1.40;;;1.50;67.30;;;;;;4972505;28;20444;-74
2022/02/28 03:37:25;;;;;;;4.47;2.35;;;1.60;66.60;;;;;;4970509;28;20038;-74
2022/02/28 03:39:51;;;;;;;4.68;1.80;;;1.70;67.30;;;;;;4978411;28;20109;-74
2022/02/28 03:42:17;;;;;;;4.32;1.55;;;1.70;66.70;;;;;;4971301;28;20142;-74
2022/02/28 03:44:43;;;;;;;3.30;1.50;;;1.70;66.90;;;;;;4971220;28;20030;-74
2022/02/28 03:47:08;;;;;;;4.15;2.00;;;1.70;67.00;;;;;;4970586;28;20101;-74
2022/02/28 03:49:34;;;;;;;3.63;1.40;;;1.60;67.40;;;;;;4967866;28;20047;-74
2022/02/28 03:52:00;;;;;;;3.72;1.40;;;1.80;66.30;;;;;;4971998;28;20133;-74
2022/02/28 03:54:25;;;;;;;4.07;1.95;;;1.90;65.90;;;;;;4972401;28;20413;-74
2022/02/28 03:56:51;;;;;;;4.53;1.92;;;1.70;66.20;;;;;;4972151;28;20085;-74
2022/02/28 03:59:17;;;;;;;3.33;1.50;;;1.80;66.10;;;;;;4971553;28;20496;-74
2022/02/28 04:01:43;;;;;;;3.45;1.50;;;2.00;65.00;;;;;;4970938;28;20027;-73
2022/02/28 04:04:10;;;;;;;3.00;1.48;;;2.30;64.60;;;;;;4961416;28;20057;-72
2022/02/28 04:06:36;;;;;;;4.50;1.40;;;2.20;65.00;;;;;;4964711;28;20035;-73
2022/02/28 04:09:07;;;;;;;2.72;1.10;;;1.90;66.70;;;;;;4960632;28;20070;-73
2022/02/28 04:11:33;;;;;;;5.00;1.92;;;1.70;66.30;;;;;;4958837;28;20033;-72
2022/02/28 04:14:00;;;;;;;3.17;1.40;;;1.80;65.70;;;;;;4957634;28;20068;-72
2022/02/28 04:16:25;;;;;;;2.83;1.40;;;2.00;65.10;;;;;;4964388;28;20384;-73
2022/02/28 04:18:51;;;;;;;4.40;1.50;;;2.00;65.10;;;;;;4965378;28;20034;-73
2022/02/28 04:21:17;;;;;;;6.15;1.85;;;2.00;65.80;;;;;;4967762;28;20030;-72
2022/02/28 04:23:42;;;;;;;3.50;1.63;;;1.60;67.70;;;;;;4966759;28;20119;-72
2022/02/28 04:26:08;;;;;;;4.35;1.73;;;1.30;67.50;;;;;;4964965;28;20400;-73
2022/02/28 04:28:34;;;;;;;3.30;1.42;;;1.60;66.50;;;;;;4966537;28;20097;-72
2022/02/28 04:30:59;;;;;;;3.72;1.75;;;1.40;68.20;;;;;;4966088;28;20047;-72
2022/02/28 04:33:25;;;;;;;4.40;1.40;;;1.40;68.30;;;;;;4965285;28;20085;-73
2022/02/28 04:35:51;;;;;;;4.18;1.40;;;1.20;68.10;;;;;;4967688;28;20476;-73
2022/02/28 04:38:16;;;;;;;4.90;1.65;;;1.50;66.70;;;;;;4967471;28;20042;-73
2022/02/28 04:40:42;;;;;;;4.60;1.50;;;1.70;65.90;;;;;;4967357;28;20664;-72
2022/02/28 04:43:08;;;;;;;2.53;1.20;;;1.80;65.30;;;;;;4967703;28;20026;-73
2022/02/28 04:45:33;;;;;;;4.20;1.52;;;2.10;64.60;;;;;;4966322;28;20038;-73
2022/02/28 04:47:59;;;;;;;2.55;1.15;;;2.00;65.10;;;;;;4963864;28;20120;-74
2022/02/28 04:50:25;;;;;;;5.07;1.73;;;1.90;65.10;;;;;;4963035;28;20505;-73
2022/02/28 04:52:50;;;;;;;3.83;1.42;;;1.90;65.20;;;;;;4966358;28;20088;-71
2022/02/28 04:55:16;;;;;;;4.05;1.42;;;1.70;66.10;;;;;;4966238;28;20652;-71
2022/02/28 04:57:44;;;;;;;3.00;1.20;;;1.80;65.50;;;;;;4964372;28;20477;-72
2022/02/28 05:00:11;;;;;;;4.63;1.17;;;1.90;65.30;;;;;;4963102;28;20062;-71
2022/02/28 05:02:37;;;;;;;4.30;1.52;;;1.70;65.80;;;;;;4962198;28;20038;-71
2022/02/28 05:05:03;;;;;;;2.83;1.40;;;1.80;65.50;;;;;;4963782;28;20142;-72
2022/02/28 05:07:29;;;;;;;4.07;1.35;;;2.00;65.10;;;;;;4963275;28;20053;-71
2022/02/28 05:09:56;;;;;;;4.90;1.80;;;1.90;65.00;;;;;;4962431;28;20073;-71
2022/02/28 05:12:21;;;;;;;3.60;1.25;;;1.80;65.50;;;;;;4963515;28;20089;-71
2022/02/28 05:14:47;;;;;;;2.95;1.08;;;1.70;65.50;;;;;;4964383;28;20406;-71
2022/02/28 05:17:13;;;;;;;3.65;1.55;;;1.80;65.40;;;;;;4968612;28;20138;-71
2022/02/28 05:19:39;;;;;;;3.47;1.80;;;1.80;65.40;;;;;;4968384;28;20058;-71
2022/02/28 05:22:04;;;;;;;4.65;1.33;;;1.80;65.60;;;;;;4966565;28;20114;-71
2022/02/28 05:24:34;;;;;;;3.13;1.38;;;1.60;66.50;;;;;;4968665;28;20030;-71
2022/02/28 05:27:00;;;;;;;3.95;1.10;;;1.30;67.20;;;;;;4951929;28;20464;-71
2022/02/28 05:29:29;;;;;;;4.72;1.38;;;1.40;67.10;;;;;;4967000;28;20035;-72
2022/02/28 05:31:55;;;;;;;3.22;1.65;;;1.40;67.00;;;;;;4967588;28;20147;-71
2022/02/28 05:34:22;;;;;;;2.45;1.13;;;1.70;65.90;;;;;;4967335;28;20035;-72
2022/02/28 05:36:47;;;;;;;3.60;1.30;;;1.70;65.70;;;;;;4967093;28;20045;-70
2022/02/28 05:39:13;;;;;;;3.22;1.10;;;1.80;65.40;;;;;;4964967;28;20114;-71
2022/02/28 05:41:39;;;;;;;3.08;1.38;;;1.80;65.50;;;;;;4967211;28;20062;-71
2022/02/28 05:44:05;;;;;;;3.55;1.17;;;1.80;66.00;;;;;;4963360;28;20465;-72
2022/02/28 05:46:31;;;;;;;3.30;1.27;;;1.70;66.10;;;;;;4967978;28;20043;-71
2022/02/28 05:48:56;;;;;;;3.92;1.63;;;1.30;67.00;;;;;;4963802;28;20030;-71
2022/02/28 05:51:24;;;;;;;4.80;1.30;;;1.20;67.30;;;;;;4966627;28;20604;-71
2022/02/28 05:53:49;;;;;;;3.55;1.30;;;1.50;66.20;;;;;;4965772;28;20035;-71
2022/02/28 05:56:15;;;;;;;4.22;1.50;;;1.50;66.20;;;;;;4967742;28;20033;-72
2022/02/28 05:58:41;;;;;;;2.30;1.10;;;1.70;65.70;;;;;;4966967;28;20030;-71
2022/02/28 06:01:06;;;;;;;3.78;1.10;;;1.80;65.60;;;;;;4967606;28;20093;-71
2022/02/28 06:03:32;;;;;;;2.00;1.05;;;1.80;65.50;;;;;;4966210;28;20488;-71
2022/02/28 06:05:58;;;;;;;3.50;1.40;;;1.60;66.10;;;;;;4967513;28;20496;-72
2022/02/28 06:08:24;;;;;;;3.40;1.50;;;1.50;66.10;;;;;;4963077;28;20043;-71
2022/02/28 06:10:50;;;;;;;3.15;1.40;;;1.60;65.70;;;;;;4961687;28;20066;-71
2022/02/28 06:13:16;;;;;;;3.33;0.93;;;1.80;65.30;;;;;;4967733;28;20049;-72
2022/02/28 06:15:43;;;;;;;5.22;1.35;;;1.90;64.80;;;;;;4966804;28;20027;-73
2022/02/28 06:18:11;;;;;;;3.17;1.33;;;1.90;64.70;;;;;;4966519;28;20586;-72
2022/02/28 06:20:41;;;;;;;3.13;1.60;;;2.00;64.90;;;;;;4962908;28;20381;-71
2022/02/28 06:23:09;;;;;;;3.03;1.15;;;1.90;64.90;;;;;;4966122;28;20041;-72
2022/02/28 06:25:36;;;;;;;4.05;1.30;;;1.80;65.40;;;;;;4966112;28;20477;-72
2022/02/28 06:28:02;;;;;;;3.97;1.27;;;1.70;65.80;;;;;;4960151;28;20110;-71
2022/02/28 06:30:28;;;;;;;3.30;1.10;;;1.70;65.70;;;;;;4964543;28;20046;-72
2022/02/28 06:32:54;;;;;;;5.07;1.75;;;1.60;66.70;;;;;;4967592;28;20033;-70
2022/02/28 06:35:19;;;;;;;2.33;1.08;;;1.60;66.10;;;;;;4972991;28;20106;-75
2022/02/28 06:37:45;;;;;;;2.83;1.30;;;1.50;66.40;;;;;;4969829;28;20085;-75
2022/02/28 06:40:11;;;;;;;3.42;1.10;;;1.60;65.90;;;;;;4969116;28;20082;-71
2022/02/28 06:42:37;;;;;;;3.42;1.55;;;1.70;65.80;;;;;;4964573;28;20030;-72
2022/02/28 06:45:04;;;;;;;3.00;1.25;;;1.80;66.00;;;;;;4968987;28;20492;-73
2022/02/28 06:47:30;;;;;;;4.90;1.58;;;1.70;65.90;;;;;;4968664;28;20054;-72
2022/02/28 06:49:56;;;;;;;5.07;1.52;;;1.70;65.90;;;;;;4968179;28;20030;-72
2022/02/28 06:52:23;;;;;;;3.85;1.42;;;1.70;66.00;;;;;;4969106;28;20031;-72
2022/02/28 06:54:52;;;;;;;2.92;1.10;;;1.40;67.80;;;;;;4969293;28;20027;-73
2022/02/28 06:57:17;;;;;;;3.10;1.75;;;1.40;67.40;;;;;;4967783;28;20046;-72
2022/02/28 06:59:43;;;;;;;3.15;1.42;;;1.40;67.30;;;;;;4969422;28;20042;-72
2022/02/28 07:02:09;;;;;;;3.60;1.48;;;1.50;66.60;;;;;;4968900;28;20127;-72
2022/02/28 07:04:34;;;;;;;3.38;1.63;;;1.40;66.50;;;;;;4969057;28;20081;-72
2022/02/28 07:07:00;;;;;;;2.72;1.15;;;1.50;66.80;;;;;;4968890;28;20063;-72
2022/02/28 07:09:26;;;;;;;5.68;2.30;;;1.50;66.60;;;;;;4968934;28;20042;-72
2022/02/28 07:11:52;;;;;;;3.90;1.20;;;1.70;66.30;;;;;;4968493;28;20568;-72
2022/02/28 07:14:18;;;;;;;3.97;1.50;;;1.70;66.00;;;;;;4959975;28;20050;-72
2022/02/28 07:16:44;;;;;;;5.50;1.55;;;1.70;66.20;;;;;;4970557;28;20389;-71
2022/02/28 07:19:09;;;;;;;2.55;1.20;;;1.50;66.70;;;;;;4969111;28;20034;-72
2022/02/28 07:21:36;;;;;;;3.58;1.30;;;1.60;66.80;;;;;;4966336;28;20031;-71
2022/02/28 07:24:01;;;;;;;4.78;1.45;;;1.40;67.50;;;;;;4963541;28;20034;-72
2022/02/28 07:26:29;;;;;;;4.38;1.55;;;1.60;66.60;;;;;;4965843;28;20031;-72
2022/02/28 07:28:55;;;;;;;2.95;1.20;;;1.70;66.20;;;;;;4965184;28;20039;-72
2022/02/28 07:31:21;;;;;;;3.13;1.20;;;1.80;66.20;;;;;;4965830;28;20734;-72
2022/02/28 07:33:47;;;;;;;6.70;1.45;;;1.60;66.90;;;;;;4965092;28;20417;-71
2022/02/28 07:36:13;;;;;;;7.55;1.90;;;1.80;65.90;;;;;;4964712;28;20035;-71
2022/02/28 07:38:39;;;;;;;3.75;1.20;;;1.80;65.90;;;;;;4964631;28;20031;-71
2022/02/28 07:41:06;;;;;;;2.80;1.15;;;1.70;65.90;;;;;;4964632;28;20031;-71
2022/02/28 07:43:31;;;;;;;2.67;1.05;;;1.80;66.00;;;;;;4964680;28;20090;-72
2022/02/28 07:45:57;;;;;;;3.20;1.35;;;1.80;67.30;;;;;;4965281;28;20090;-71
2022/02/28 07:48:23;;;;;;;2.35;1.00;;;1.80;66.70;;;;;;4965078;28;20043;-71
2022/02/28 07:50:49;;;;;;;3.33;1.35;;;1.90;65.90;;;;;;4964355;28;20046;-71
2022/02/28 07:53:14;;;;;;;2.25;1.00;;;1.90;66.50;;;;;;4964584;28;20031;-72
2022/02/28 07:55:40;;;;;;;3.53;1.30;;;1.90;65.90;;;;;;4964303;28;20067;-71
2022/02/28 07:58:06;;;;;;;3.10;1.30;;;2.10;65.00;;;;;;4963826;28;20133;-72
2022/02/28 08:00:32;;;;;;;2.13;1.10;;;2.10;65.00;;;;;;4958247;28;20409;-71
2022/02/28 08:02:58;;;;;;;10.02;1.80;;;2.20;64.60;;;;;;4959937;28;20098;-71
2022/02/28 08:05:24;;;;;;;7.25;1.48;;;2.20;65.10;;;;;;4962712;28;20050;-72
2022/02/28 08:07:50;;;;;;;3.45;1.48;;;2.10;65.50;;;;;;4964696;28;20031;-71
2022/02/28 08:10:16;;;;;;;5.25;1.90;;;2.10;65.20;;;;;;4964811;28;20534;-71
2022/02/28 08:12:41;;;;;;;2.97;1.15;;;2.10;65.40;;;;;;4964821;28;20069;-72
2022/02/28 08:15:07;;;;;;;5.78;1.45;;;2.20;65.20;;;;;;4964230;28;20121;-72
2022/02/28 08:17:33;;;;;;;3.00;1.50;;;2.40;64.30;;;;;;4965057;28;20567;-71
2022/02/28 08:19:59;;;;;;;2.55;1.00;;;2.50;64.10;;;;;;4954609;28;20039;-72
2022/02/28 08:22:24;;;;;;;1.92;1.10;;;2.50;64.70;;;;;;4964480;28;20039;-71
2022/02/28 08:24:50;;;;;;;4.32;1.13;;;2.50;64.20;;;;;;4964397;28;20023;-71
2022/02/28 08:27:16;;;;;;;4.63;1.55;;;2.60;64.30;;;;;;4963908;28;20097;-72
2022/02/28 08:29:42;;;;;;;2.85;1.45;;;2.50;63.80;;;;;;4963422;28;20039;-72
2022/02/28 08:32:08;;;;;;;3.00;1.20;;;2.60;63.90;;;;;;4960245;28;20142;-72
2022/02/28 08:34:34;;;;;;;5.45;1.55;;;2.70;64.00;;;;;;4960764;28;20026;-72
2022/02/28 08:37:00;;;;;;;3.10;1.35;;;2.80;65.00;;;;;;4963968;28;20053;-71
2022/02/28 08:39:25;;;;;;;2.92;1.17;;;2.80;65.20;;;;;;4964457;28;20051;-72
2022/02/28 08:41:51;;;;;;;4.50;1.50;;;2.80;64.10;;;;;;4964001;28;20515;-72
2022/02/28 08:44:17;;;;;;;2.95;1.55;;;2.90;64.50;;;;;;4964761;28;20042;-72
2022/02/28 08:46:42;;;;;;;3.55;1.83;;;2.90;64.20;;;;;;4964080;28;20114;-72
2022/02/28 08:49:08;;;;;;;4.53;1.40;;;3.00;64.40;;;;;;4964016;28;20062;-71
2022/02/28 08:51:34;;;;;;;5.68;1.92;;;3.10;64.30;;;;;;4963247;28;20188;-72
2022/02/28 08:53:59;;;;;;;3.28;1.30;;;3.00;63.70;;;;;;4958715;28;20097;-72
2022/02/28 08:56:25;;;;;;;2.95;1.35;;;3.10;63.80;;;;;;4963758;28;20062;-72
2022/02/28 08:58:51;;;;;;;2.47;1.20;;;3.20;63.40;;;;;;4965765;28;20510;-72
2022/02/28 09:01:17;;;;;;;2.85;1.30;;;3.20;63.20;;;;;;4963785;28;20076;-72
2022/02/28 09:03:42;;;;;;;3.17;1.50;;;3.20;63.40;;;;;;4963652;28;20059;-72
2022/02/28 09:06:08;;;;;;;3.40;1.65;;;3.10;63.30;;;;;;4964391;28;20107;-72
2022/02/28 09:08:34;;;;;;;3.70;1.63;;;3.10;64.00;;;;;;4963856;28;20039;-72
2022/02/28 09:10:59;;;;;;;4.80;2.03;;;3.10;64.00;;;;;;4963824;28;20090;-72
2022/02/28 09:13:26;;;;;;;7.65;1.67;;;3.20;64.10;;;;;;4963702;28;20118;-72
2022/02/28 09:15:52;;;;;;;5.43;2.03;;;3.20;66.20;;;;;;4963483;28;20027;-72
2022/02/28 09:18:18;;;;;;;4.88;1.50;;;3.20;66.70;;;;;;4963351;28;20042;-72
2022/02/28 09:20:44;;;;;;;4.80;1.88;;;3.10;66.10;;;;;;4963435;28;20038;-71
2022/02/28 09:23:09;;;;;;;4.78;1.80;;;3.20;65.20;;;;;;4964591;28;20031;-72
2022/02/28 09:25:35;;;;;;;7.13;1.55;;;3.20;64.90;;;;;;4963570;28;20129;-72
2022/02/28 09:28:01;;;;;;;4.15;1.80;;;3.20;64.80;;;;;;4964278;28;20045;-72
2022/02/28 09:30:27;;;;;;;4.00;1.45;;;3.30;65.00;;;;;;4963277;28;20039;-72
2022/02/28 09:32:53;;;;;;;4.80;2.00;;;3.50;65.80;;;;;;4963717;28;20042;-72
2022/02/28 09:35:19;;;;;;;4.78;1.40;;;3.60;65.50;;;;;;4963938;28;20039;-72
2022/02/28 09:37:44;;;;;;;4.32;1.60;;;3.80;64.90;;;;;;4963473;28;20031;-72
2022/02/28 09:40:11;;;;;;;3.28;1.35;;;4.10;64.00;;;;;;4962193;28;20034;-72
2022/02/28 09:42:38;;;;;;;3.63;1.40;;;4.20;63.80;;;;;;4964001;28;20031;-72
2022/02/28 09:45:05;;;;;;;3.30;1.50;;;4.20;64.20;;;;;;4961194;28;20039;-72
2022/02/28 09:47:35;;;;;;;2.97;1.20;;;4.00;63.70;;;;;;4964341;28;20050;-72
2022/02/28 09:50:01;;;;;;;3.70;1.50;;;4.00;63.00;;;;;;4961540;28;20054;-71
2022/02/28 09:52:26;;;;;;;4.60;1.58;;;4.10;62.70;;;;;;4963969;28;20038;-71
2022/02/28 09:54:52;;;;;;;4.65;2.00;;;4.10;64.40;;;;;;4960650;28;20462;-71
2022/02/28 09:57:22;;;;;;;5.70;1.70;;;4.20;64.80;;;;;;4960029;28;20465;-71
2022/02/28 09:59:48;;;;;;;6.10;1.70;;;4.30;63.50;;;;;;4959655;28;20470;-71
2022/02/28 10:02:14;;;;;;;3.75;1.83;;;4.40;63.60;;;;;;4961014;28;20030;-72
2022/02/28 10:04:39;;;;;;;4.57;1.88;;;4.40;62.20;;;;;;4965309;28;20062;-72
2022/02/28 10:07:23;;;;;;;6.15;1.77;;;4.60;62.20;;;;;;4967681;28;20035;-71
2022/02/28 10:10:10;;;;;;;4.70;1.75;;;4.60;62.00;;;;;;4959208;28;20118;-73
2022/02/28 10:12:37;;;;;;;3.90;1.45;;;4.80;61.70;;;;;;4963425;28;20034;-72
2022/02/28 10:15:27;;;;;;;6.57;2.53;;;4.90;61.00;;;;;;4959723;28;20638;-71
2022/02/28 10:17:56;;;;;;;4.03;1.73;;;5.10;61.20;;;;;;4961982;28;20062;-74
2022/02/28 10:20:30;;;;;;;4.05;1.65;;;5.20;61.00;;;;;;4959756;28;20031;-73
2022/02/28 10:23:08;;;;;;;5.15;1.45;;;5.30;61.70;;;;;;4962487;28;20146;-73
2022/02/28 10:25:46;;;;;;;3.92;1.33;;;5.30;61.90;;;;;;4959038;28;20109;-74
2022/02/28 10:28:12;;;;;;;11.30;4.93;;;5.30;61.60;;;;;;4963687;28;20022;-73
2022/02/28 10:30:39;;;;;;;5.68;2.20;;;5.50;62.10;;;;;;4962578;28;20401;-73
2022/02/28 10:33:09;;;;;;;7.75;1.83;;;5.70;61.90;;;;;;4964693;28;20037;-73
2022/02/28 10:38:22;;;;;;;6.38;1.77;;;5.70;61.20;;;;;;4966077;28;20160;-73
2022/02/28 10:40:48;;;;;;;5.28;1.90;;;5.80;61.30;;;;;;4965566;28;20723;-73
2022/02/28 10:43:25;;;;;;;5.82;2.33;;;5.80;61.20;;;;;;4967095;28;20412;-73
2022/02/28 10:45:51;;;;;;;4.25;2.30;;;6.00;62.10;;;;;;4961682;28;20022;-73
2022/02/28 10:48:17;;;;;;;3.50;2.15;;;6.20;62.10;;;;;;4962569;28;20581;-73
2022/02/28 10:50:43;;;;;;;4.53;1.58;;;6.50;61.70;;;;;;4962735;28;20141;-74
2022/02/28 10:53:15;;;;;;;5.00;1.90;;;6.60;61.20;;;;;;4960936;28;20097;-73
2022/02/28 10:55:42;;;;;;;5.35;2.15;;;6.50;60.40;;;;;;4962127;28;20591;-73
2022/02/28 10:58:09;;;;;;;3.42;1.70;;;6.50;61.90;;;;;;4966110;28;20457;-73
2022/02/28 11:00:56;;;;;;;5.95;2.03;;;6.50;61.40;;;;;;4965747;28;20034;-72
2022/02/28 11:03:22;;;;;;;3.95;1.67;;;6.50;61.60;;;;;;4964208;28;20054;-73
2022/02/28 11:05:50;;;;;;;3.30;1.58;;;6.60;61.00;;;;;;4966523;28;20026;-73
2022/02/28 11:08:23;;;;;;;7.07;1.85;;;6.60;61.20;;;;;;4966165;28;20037;-73
2022/02/28 11:10:54;;;;;;;3.40;1.70;;;7.10;60.80;;;;;;4966588;28;20048;-73
2022/02/28 11:13:21;;;;;;;4.70;2.10;;;7.10;59.60;;;;;;4965931;28;20018;-74
2022/02/28 11:15:48;;;;;;;4.93;1.95;;;7.40;59.50;;;;;;4964458;28;20026;-73
2022/02/28 11:18:17;;;;;;;3.75;1.58;;;7.50;58.40;;;;;;4966436;28;20085;-73
2022/02/28 11:20:43;;;;;;;3.70;1.58;;;7.50;60.10;;;;;;4965878;28;20030;-73
2022/02/28 11:23:09;;;;;;;3.58;1.70;;;7.40;59.70;;;;;;4966592;28;20038;-73
2022/02/28 11:25:34;;;;;;;4.97;2.13;;;7.30;60.40;;;;;;4965552;28;20034;-73
2022/02/28 11:28:00;;;;;;;5.10;1.75;;;7.40;59.70;;;;;;4964377;28;20034;-73
2022/02/28 11:30:30;;;;;;;4.57;1.70;;;7.40;59.40;;;;;;4965594;28;20129;-73
2022/02/28 11:33:07;;;;;;;10.75;4.53;;;7.50;59.10;;;;;;4966134;28;20090;-73
2022/02/28 11:35:48;;;;;;;5.13;2.22;;;7.50;58.80;;;;;;4964417;28;20543;-73
2022/02/28 11:38:17;;;;;;;6.10;2.88;;;7.60;58.70;;;;;;4964225;28;20030;-73
2022/02/28 11:40:54;;;;;;;6.47;3.40;;;8.00;60.00;;;;;;4963749;28;20035;-73
2022/02/28 11:43:24;;;;;;;3.90;1.70;;;8.50;59.10;;;;;;4959468;28;20468;-73
2022/02/28 11:45:55;;;;;;;4.68;2.20;;;8.60;57.30;;;;;;4960825;28;20077;-72
2022/02/28 11:48:33;;;;;;;4.65;1.90;;;8.40;58.10;;;;;;4964690;28;20026;-72
2022/02/28 11:51:01;;;;;;;3.67;2.00;;;8.40;58.80;;;;;;4966266;28;20043;-72
2022/02/28 11:53:44;;;;;;;7.07;3.20;;;8.40;57.60;;;;;;4965787;28;20097;-72
2022/02/28 11:56:18;;;;;;;5.07;2.72;;;8.60;57.60;;;;;;4966018;28;20042;-72
2022/02/28 11:58:51;;;;;;;19.35;9.48;;;8.80;58.00;;;;;;4963433;28;20027;-72
2022/02/28 12:01:19;;;;;;;14.32;10.63;;;9.10;58.90;;;;;;4965916;28;20041;-73
2022/02/28 12:03:50;;;;;;;4.97;2.83;;;9.10;56.40;;;;;;4965785;28;20919;-72
2022/02/28 12:06:53;;;;;;;5.28;1.98;;;9.20;58.10;;;;;;4945763;28;20582;-72
2022/02/28 12:09:46;;;;;;;3.65;2.13;;;9.10;55.50;;;;;;4962650;28;20117;-72
2022/02/28 12:12:35;;;;;;;19.83;8.65;;;8.80;56.10;;;;;;4963310;28;20049;-72
2022/02/28 12:15:02;;;;;;;17.42;7.53;;;9.10;57.50;;;;;;4965737;28;20041;-72
2022/02/28 12:17:34;;;;;;;12.32;5.80;;;9.40;57.60;;;;;;4965916;28;20421;-72
2022/02/28 12:20:12;;;;;;;28.33;14.57;;;9.50;56.80;;;;;;4964364;28;20026;-72
2022/02/28 12:23:05;;;;;;;5.90;2.17;;;9.50;56.50;;;;;;4962414;28;20089;-72
2022/02/28 12:25:52;;;;;;;5.72;2.25;;;9.40;56.80;;;;;;4963062;28;20035;-72
2022/02/28 12:28:19;;;;;;;6.53;2.45;;;9.40;55.60;;;;;;4965838;28;20596;-72
2022/02/28 12:31:12;;;;;;;7.57;3.25;;;9.50;54.90;;;;;;4968698;28;20050;-72
2022/02/28 12:33:38;;;;;;;4.85;2.40;;;9.60;55.70;;;;;;4966841;28;20045;-72
2022/02/28 12:36:07;;;;;;;6.65;2.65;;;9.80;55.60;;;;;;4968273;28;20106;-72
2022/02/28 12:38:40;;;;;;;4.45;2.08;;;9.90;55.70;;;;;;4966780;28;20118;-72
2022/02/28 12:41:13;;;;;;;14.70;6.50;;;10.00;56.30;;;;;;4967359;28;20035;-72
2022/02/28 12:43:40;;;;;;;11.90;4.22;;;10.30;57.50;;;;;;4967046;28;20034;-72
2022/02/28 12:46:13;;;;;;;13.35;9.63;;;10.10;56.40;;;;;;4967795;28;20050;-72
2022/02/28 12:48:40;;;;;;;5.88;2.78;;;10.30;56.00;;;;;;4967557;28;20125;-72
2022/02/28 12:51:08;;;;;;;9.40;3.70;;;10.10;55.30;;;;;;4967842;28;20462;-72
2022/02/28 12:53:36;;;;;;;6.65;3.38;;;10.20;56.30;;;;;;4967066;28;20097;-73
2022/02/28 12:56:10;;;;;;;6.93;3.30;;;10.20;56.30;;;;;;4966783;28;20113;-72
2022/02/28 12:58:46;;;;;;;9.23;2.38;;;10.40;56.50;;;;;;4967912;28;20034;-72